Time;durP1;ratioP1;P1;durP2;ratioP2;P2;SDS_P1;SDS_P2;PMS_P1;PMS_P2;Temp;Humidity;BMP_temperature;BMP_pressure;BME280_temperature;BME280_humidity;BME280_pressure;Samples;Min_cycle;Max_cycle;Signal;HPM_P1;HPM_P2
2023/02/22 07:33:06;;;;;;;5.60;2.53;;;1.60;99.90;;;;;;5135303;27;20273;-78
2023/02/22 07:36:57;;;;;;;6.07;1.70;;;1.60;99.90;;;;;;5117353;27;20292;-79
2023/02/22 07:39:22;;;;;;;3.97;2.30;;;1.90;99.90;;;;;;5117161;28;20278;-79
2023/02/22 07:41:48;;;;;;;4.97;1.97;;;2.00;99.90;;;;;;5117936;28;20189;-79
2023/02/22 07:44:14;;;;;;;4.43;1.87;;;2.30;99.90;;;;;;5118716;28;20173;-79
2023/02/22 07:46:40;;;;;;;8.50;2.30;;;2.30;99.90;;;;;;5116211;28;20193;-78
2023/02/22 07:49:06;;;;;;;2.77;2.00;;;;;;;;;;5115203;28;20177;-78
2023/02/22 07:51:31;;;;;;;3.03;1.83;;;2.60;99.90;;;;;;5116412;28;20518;-78
2023/02/22 07:53:57;;;;;;;3.00;2.30;;;2.60;99.90;;;;;;5116778;28;20172;-78
2023/02/22 07:56:23;;;;;;;6.27;2.30;;;2.80;99.90;;;;;;5116492;28;20212;-78
2023/02/22 07:58:48;;;;;;;3.60;2.53;;;3.20;99.90;;;;;;5116678;28;20169;-78
2023/02/22 08:01:14;;;;;;;4.30;2.67;;;4.00;99.90;;;;;;5117938;28;20203;-79
2023/02/22 08:03:39;;;;;;;7.20;2.37;;;4.90;99.90;;;;;;5115690;28;20222;-79
2023/02/22 08:06:06;;;;;;;4.63;2.73;;;5.60;99.90;;;;;;5116611;28;20201;-79
2023/02/22 08:08:33;;;;;;;4.43;2.77;;;6.50;99.90;;;;;;5125504;28;20186;-79
2023/02/22 08:10:59;;;;;;;4.10;2.37;;;6.90;99.90;;;;;;5115202;28;20265;-80
2023/02/22 08:13:24;;;;;;;5.57;2.77;;;7.50;99.90;;;;;;5113733;28;20216;-81
2023/02/22 08:15:52;;;;;;;4.40;1.93;;;8.10;98.20;;;;;;5113999;28;20208;-79
2023/02/22 08:18:19;;;;;;;4.87;2.03;;;8.00;96.90;;;;;;5115818;28;20176;-80
2023/02/22 08:20:46;;;;;;;4.77;2.57;;;7.50;97.00;;;;;;5113830;28;20194;-80
2023/02/22 08:23:13;;;;;;;4.37;1.87;;;6.90;98.10;;;;;;5114436;28;20523;-80
2023/02/22 08:25:39;;;;;;;8.63;2.87;;;6.40;99.30;;;;;;5112816;28;20287;-80
2023/02/22 08:28:08;;;;;;;5.57;2.97;;;6.30;99.90;;;;;;5115548;28;20188;-80
2023/02/22 08:30:35;;;;;;;7.17;2.97;;;6.20;99.90;;;;;;5113584;28;20186;-80
2023/02/22 08:33:02;;;;;;;9.20;4.20;;;6.90;99.90;;;;;;5114381;28;20202;-80
2023/02/22 08:35:29;;;;;;;7.43;4.17;;;6.90;99.90;;;;;;5115238;28;20630;-80
2023/02/22 08:37:58;;;;;;;5.43;3.30;;;6.60;99.90;;;;;;5115410;28;20167;-80
2023/02/22 08:40:26;;;;;;;9.47;5.20;;;6.20;99.90;;;;;;5115202;28;20227;-80
2023/02/22 08:42:53;;;;;;;11.47;6.40;;;6.10;99.90;;;;;;5114108;28;20204;-79
2023/02/22 08:45:19;;;;;;;8.60;3.63;;;6.20;99.90;;;;;;5114445;28;20219;-80
2023/02/22 08:47:45;;;;;;;7.90;3.90;;;6.40;99.90;;;;;;5104682;28;20640;-79
2023/02/22 08:50:18;;;;;;;4.87;3.30;;;6.70;99.90;;;;;;5101901;28;20176;-80
2023/02/22 08:52:43;;;;;;;4.37;2.57;;;6.80;99.90;;;;;;5100573;28;20274;-79
2023/02/22 08:55:09;;;;;;;4.33;2.63;;;6.90;99.90;;;;;;5100456;28;20259;-80
2023/02/22 08:57:35;;;;;;;8.30;3.03;;;7.00;99.90;;;;;;5100924;28;20775;-79
2023/02/22 09:00:01;;;;;;;4.27;2.83;;;7.20;99.90;;;;;;5101581;28;20196;-80
2023/02/22 09:02:27;;;;;;;8.03;2.80;;;7.80;99.90;;;;;;5099515;28;20534;-80
2023/02/22 09:04:52;;;;;;;6.60;2.30;;;8.50;99.90;;;;;;5102505;28;20183;-79
2023/02/22 09:07:18;;;;;;;5.43;2.37;;;8.70;98.90;;;;;;5098702;28;20180;-80
2023/02/22 09:09:44;;;;;;;4.63;2.37;;;8.70;99.90;;;;;;5101435;28;20168;-80
2023/02/22 09:12:10;;;;;;;7.83;3.30;;;8.90;99.10;;;;;;5101231;28;20179;-80
2023/02/22 09:14:38;;;;;;;4.83;2.63;;;9.10;98.80;;;;;;5099608;28;20180;-80
2023/02/22 09:17:04;;;;;;;4.27;2.70;;;9.30;98.50;;;;;;5100517;28;20547;-80
2023/02/22 09:19:30;;;;;;;4.93;2.50;;;9.80;99.40;;;;;;5099175;28;20206;-80
2023/02/22 09:21:58;;;;;;;7.07;2.80;;;10.70;98.30;;;;;;5100023;28;20297;-80
2023/02/22 09:24:23;;;;;;;5.47;2.77;;;11.10;95.50;;;;;;5099628;28;20187;-81
2023/02/22 09:26:58;;;;;;;4.57;2.50;;;11.90;95.50;;;;;;5100872;28;20200;-80
2023/02/22 09:29:26;;;;;;;7.97;3.70;;;12.50;93.60;;;;;;5101211;28;20172;-81
2023/02/22 09:31:54;;;;;;;8.57;4.00;;;12.30;93.00;;;;;;5100429;28;20623;-81
2023/02/22 09:34:27;;;;;;;15.67;9.17;;;12.00;92.60;;;;;;5099241;28;20176;-81
2023/02/22 09:36:53;;;;;;;14.93;10.20;;;12.00;92.90;;;;;;5099713;28;20265;-80
2023/02/22 09:39:20;;;;;;;15.77;8.50;;;12.20;93.20;;;;;;5099700;28;20255;-80
2023/02/22 09:41:49;;;;;;;7.17;3.93;;;12.40;92.60;;;;;;5099422;28;20188;-81
2023/02/22 09:44:23;;;;;;;5.80;3.93;;;13.10;92.30;;;;;;5102728;28;20181;-81
2023/02/22 09:46:53;;;;;;;5.53;2.90;;;13.50;91.30;;;;;;5100695;28;20755;-81
2023/02/22 09:49:38;;;;;;;8.30;4.73;;;14.00;90.70;;;;;;5102149;28;20237;-81
2023/02/22 09:52:17;;;;;;;6.03;3.30;;;14.50;89.60;;;;;;5101772;28;20181;-81
2023/02/22 09:54:54;;;;;;;9.00;2.80;;;14.00;88.50;;;;;;5100275;28;20202;-81
2023/02/22 09:57:33;;;;;;;7.67;3.20;;;13.90;90.30;;;;;;5100784;28;20201;-81
2023/02/22 10:00:12;;;;;;;3.53;2.60;;;14.40;90.90;;;;;;5099289;28;20267;-81
2023/02/22 10:03:10;;;;;;;6.50;2.73;;;14.90;89.10;;;;;;5101267;28;20345;-81
2023/02/22 10:05:40;;;;;;;7.93;2.60;;;15.50;90.20;;;;;;5076189;28;20607;-81
2023/02/22 10:08:17;;;;;;;4.27;2.43;;;16.20;90.10;;;;;;5101261;28;20183;-82
2023/02/22 10:10:45;;;;;;;6.83;3.17;;;16.60;87.20;;;;;;5101248;28;20167;-81
2023/02/22 10:13:33;;;;;;;5.40;2.80;;;17.10;85.30;;;;;;5100321;28;20177;-82
2023/02/22 10:16:21;;;;;;;5.67;2.70;;;17.20;82.20;;;;;;5099382;28;20702;-81
2023/02/22 10:19:09;;;;;;;5.47;2.73;;;17.50;81.70;;;;;;5099672;28;20170;-82
2023/02/22 10:21:54;;;;;;;4.97;2.83;;;17.60;79.50;;;;;;5099933;28;20636;-82
2023/02/22 10:24:55;;;;;;;4.77;2.37;;;17.30;75.80;;;;;;5099518;28;20164;-82
2023/02/22 10:27:31;;;;;;;3.97;2.63;;;16.70;80.00;;;;;;5098256;28;20240;-82
2023/02/22 10:30:03;;;;;;;3.10;2.30;;;16.70;78.90;;;;;;5097691;28;20632;-82
2023/02/22 10:32:41;;;;;;;4.00;2.73;;;17.20;78.80;;;;;;5098994;28;20193;-82
2023/02/22 10:35:26;;;;;;;6.20;2.70;;;17.50;80.60;;;;;;5097399;28;20212;-82
2023/02/22 10:37:58;;;;;;;4.70;2.43;;;17.50;75.70;;;;;;5098162;28;20529;-82
2023/02/22 10:40:30;;;;;;;5.77;2.63;;;17.40;78.30;;;;;;5098512;28;20169;-82
2023/02/22 10:43:08;;;;;;;2.90;2.20;;;16.50;78.20;;;;;;5098331;28;20167;-82
2023/02/22 10:45:35;;;;;;;3.67;2.57;;;16.40;80.10;;;;;;5100343;28;20191;-82
2023/02/22 10:48:07;;;;;;;4.07;2.50;;;16.00;79.40;;;;;;5099623;28;20214;-82
2023/02/22 10:50:35;;;;;;;5.00;2.30;;;15.80;78.00;;;;;;5097988;28;20179;-82
2023/02/22 10:53:02;;;;;;;6.13;3.47;;;15.90;80.70;;;;;;5097810;28;20181;-82
2023/02/22 10:55:28;;;;;;;5.47;3.30;;;16.10;82.10;;;;;;5097802;28;20212;-82
2023/02/22 10:58:05;;;;;;;7.00;3.00;;;15.90;79.00;;;;;;5097594;28;20190;-82
2023/02/22 11:00:38;;;;;;;4.10;2.63;;;15.60;81.50;;;;;;5097162;28;20171;-82
2023/02/22 11:03:17;;;;;;;5.00;3.10;;;15.70;81.30;;;;;;5097610;28;20634;-83
2023/02/22 11:05:43;;;;;;;4.03;3.07;;;16.10;80.70;;;;;;5098494;28;20193;-82
2023/02/22 11:08:29;;;;;;;3.73;2.57;;;16.40;80.30;;;;;;5097571;28;20186;-82
2023/02/22 11:11:23;;;;;;;7.87;2.90;;;16.30;76.80;;;;;;5097522;28;20173;-82
2023/02/22 11:13:56;;;;;;;5.50;3.10;;;16.00;78.50;;;;;;5098847;28;20234;-82
2023/02/22 11:16:59;;;;;;;3.47;2.77;;;16.30;76.60;;;;;;5097255;28;20209;-82
2023/02/22 11:19:27;;;;;;;5.63;3.07;;;16.70;78.00;;;;;;5020423;28;20178;-83
2023/02/22 11:22:11;;;;;;;5.90;2.90;;;16.90;80.50;;;;;;5088638;28;20182;-81
2023/02/22 11:25:03;;;;;;;4.93;2.77;;;17.40;74.30;;;;;;5100107;28;20207;-82
2023/02/22 11:28:05;;;;;;;3.67;2.37;;;17.60;78.50;;;;;;5099932;28;20170;-82
2023/02/22 11:30:33;;;;;;;3.57;2.40;;;18.20;72.30;;;;;;5099925;28;20173;-81
2023/02/22 11:33:14;;;;;;;4.13;2.73;;;18.50;69.90;;;;;;5100132;28;20538;-82
2023/02/22 11:35:53;;;;;;;6.10;2.77;;;18.80;72.00;;;;;;5100893;28;20214;-82
2023/02/22 11:38:27;;;;;;;4.07;2.40;;;19.00;68.80;;;;;;5098709;28;20623;-82
2023/02/22 11:41:14;;;;;;;3.53;2.20;;;18.80;68.40;;;;;;5098738;28;20175;-82
2023/02/22 11:43:44;;;;;;;4.93;2.50;;;18.70;65.60;;;;;;5099903;28;20176;-80
2023/02/22 11:46:21;;;;;;;5.77;2.50;;;18.70;59.90;;;;;;5098963;28;20251;-80
2023/02/22 11:49:09;;;;;;;3.40;2.33;;;18.60;63.50;;;;;;5098800;28;20222;-80
2023/02/22 11:51:52;;;;;;;7.30;2.87;;;19.30;58.60;;;;;;5099952;28;20178;-81
2023/02/22 11:54:39;;;;;;;3.10;2.60;;;19.10;55.60;;;;;;5099916;28;20176;-80
2023/02/22 11:57:26;;;;;;;5.23;2.57;;;18.00;56.20;;;;;;5099931;28;20200;-80
2023/02/22 12:00:14;;;;;;;5.27;3.10;;;17.60;57.50;;;;;;5097890;28;20633;-81
2023/02/22 12:02:41;;;;;;;4.53;2.33;;;17.60;58.70;;;;;;5097110;28;20171;-80
2023/02/22 12:05:25;;;;;;;4.27;2.93;;;17.30;57.30;;;;;;5096485;28;20183;-83
2023/02/22 12:08:20;;;;;;;5.70;3.23;;;17.10;60.10;;;;;;5097860;28;20166;-82
2023/02/22 12:11:21;;;;;;;4.83;2.70;;;17.20;58.40;;;;;;5096778;28;20238;-80
2023/02/22 12:14:08;;;;;;;5.53;3.20;;;16.50;57.90;;;;;;5096473;28;20514;-80
2023/02/22 12:16:53;;;;;;;5.23;3.30;;;15.60;58.70;;;;;;5095733;28;20212;-80
2023/02/22 12:19:30;;;;;;;8.33;5.80;;;15.70;59.50;;;;;;5095967;28;20542;-80
2023/02/22 12:22:01;;;;;;;8.03;5.93;;;15.90;60.20;;;;;;5097133;28;20173;-82
2023/02/22 12:24:39;;;;;;;9.77;5.60;;;15.90;61.00;;;;;;5102047;28;20522;-80
2023/02/22 12:27:15;;;;;;;9.67;5.97;;;15.60;62.40;;;;;;5103653;28;20220;-80
2023/02/22 12:29:49;;;;;;;11.93;6.67;;;15.30;62.10;;;;;;5101139;28;20515;-80
2023/02/22 12:32:49;;;;;;;14.07;7.27;;;15.30;64.50;;;;;;5100017;28;20191;-80
2023/02/22 12:35:20;;;;;;;11.57;7.97;;;15.70;64.90;;;;;;5099701;28;20223;-79
2023/02/22 12:38:13;;;;;;;9.73;7.63;;;16.10;65.00;;;;;;5099636;28;20172;-80
2023/02/22 12:40:56;;;;;;;12.13;8.10;;;16.30;65.20;;;;;;5098471;28;20626;-81
2023/02/22 12:43:28;;;;;;;11.73;8.50;;;16.40;65.90;;;;;;5099529;28;20153;-80
2023/02/22 12:46:19;;;;;;;13.93;9.20;;;17.50;65.30;;;;;;5099203;28;20196;-80
2023/02/22 12:48:56;;;;;;;14.30;8.73;;;18.10;65.70;;;;;;5098767;28;20212;-80
2023/02/22 12:51:38;;;;;;;10.43;7.57;;;19.00;63.90;;;;;;5099568;28;20164;-81
2023/02/22 12:54:35;;;;;;;11.93;8.83;;;19.60;60.80;;;;;;5098767;28;20180;-81
2023/02/22 12:57:12;;;;;;;12.80;8.07;;;19.60;60.80;;;;;;5101025;28;20209;-81
2023/02/22 13:00:02;;;;;;;12.50;9.13;;;18.60;63.10;;;;;;5100137;28;20158;-81
2023/02/22 13:02:37;;;;;;;12.37;8.93;;;18.50;67.00;;;;;;5098232;28;20209;-81
2023/02/22 13:05:03;;;;;;;13.07;8.97;;;18.30;62.90;;;;;;5098582;28;20180;-81
2023/02/22 13:07:46;;;;;;;14.60;10.13;;;18.70;65.10;;;;;;5099319;28;20548;-80
2023/02/22 13:10:45;;;;;;;13.27;9.63;;;19.50;64.20;;;;;;5101127;28;20171;-80
2023/02/22 13:13:14;;;;;;;14.70;9.70;;;19.40;61.90;;;;;;5075626;28;20545;-81
2023/02/22 13:15:47;;;;;;;15.57;9.20;;;19.20;64.10;;;;;;5099735;28;20303;-80
2023/02/22 13:18:39;;;;;;;11.77;9.20;;;19.00;64.50;;;;;;5100245;28;20170;-81
2023/02/22 13:21:14;;;;;;;12.83;9.37;;;19.00;64.80;;;;;;5102742;28;20157;-80
2023/02/22 13:24:11;;;;;;;12.33;8.80;;;19.60;64.60;;;;;;5110623;28;20165;-80
2023/02/22 13:26:53;;;;;;;12.57;9.10;;;20.20;63.20;;;;;;5109051;28;20186;-81
2023/02/22 13:29:40;;;;;;;13.30;9.50;;;20.50;63.50;;;;;;5099972;28;20177;-80
2023/02/22 13:32:15;;;;;;;14.57;9.63;;;20.70;61.70;;;;;;5098564;28;20182;-80
2023/02/22 13:34:43;;;;;;;10.60;8.20;;;19.90;63.80;;;;;;5099176;28;20169;-80
2023/02/22 13:37:54;;;;;;;14.33;9.50;;;18.70;64.70;;;;;;5098075;28;20199;-81
2023/02/22 13:40:55;;;;;;;12.03;9.17;;;17.60;67.60;;;;;;5094020;28;20176;-81
2023/02/22 13:43:42;;;;;;;12.73;9.53;;;16.50;70.70;;;;;;5098932;28;20217;-80
2023/02/22 13:46:15;;;;;;;13.00;10.17;;;16.20;72.60;;;;;;5101106;28;20713;-80
2023/02/22 13:49:18;;;;;;;13.23;10.37;;;16.20;73.20;;;;;;5102662;28;20163;-80
2023/02/22 13:52:00;;;;;;;14.80;9.70;;;16.90;72.20;;;;;;5096929;28;20203;-81
2023/02/22 13:54:36;;;;;;;15.30;10.33;;;17.90;69.30;;;;;;5096962;28;20668;-80
2023/02/22 13:57:03;;;;;;;14.47;10.27;;;18.90;66.50;;;;;;5098416;28;20208;-80
2023/02/22 13:59:38;;;;;;;16.37;10.33;;;18.60;66.00;;;;;;5097112;28;20176;-80
2023/02/22 14:02:06;;;;;;;10.73;8.87;;;18.20;68.20;;;;;;5098417;28;20154;-80
2023/02/22 14:04:42;;;;;;;12.27;9.93;;;18.50;68.80;;;;;;5096911;28;20226;-80
2023/02/22 14:07:17;;;;;;;12.50;10.40;;;18.40;67.00;;;;;;5099129;28;20188;-80
2023/02/22 14:09:51;;;;;;;13.07;10.10;;;18.40;67.30;;;;;;5099534;28;20195;-80
2023/02/22 14:12:47;;;;;;;17.00;10.17;;;18.30;66.60;;;;;;5101322;28;20180;-79
2023/02/22 14:15:15;;;;;;;12.00;9.30;;;18.10;67.00;;;;;;5100133;28;20269;-80
2023/02/22 14:17:57;;;;;;;15.90;9.80;;;18.20;67.10;;;;;;5098129;28;20168;-80
2023/02/22 14:20:33;;;;;;;16.83;10.57;;;17.50;68.00;;;;;;5097989;28;20165;-80
2023/02/22 14:23:35;;;;;;;14.10;9.47;;;16.70;70.30;;;;;;5098679;28;20172;-80
2023/02/22 14:26:25;;;;;;;14.13;9.80;;;16.20;71.50;;;;;;5099624;28;20191;-80
2023/02/22 14:29:12;;;;;;;15.23;9.90;;;15.80;72.20;;;;;;5098587;28;20226;-79
2023/02/22 14:31:45;;;;;;;12.43;9.50;;;15.60;73.20;;;;;;5096629;28;20203;-80
2023/02/22 14:34:43;;;;;;;12.07;9.70;;;15.30;74.30;;;;;;5097516;28;20266;-80
2023/02/22 14:37:29;;;;;;;11.83;8.93;;;15.20;74.70;;;;;;5099642;28;20209;-82
2023/02/22 14:40:17;;;;;;;13.10;9.40;;;15.20;75.00;;;;;;5097561;28;20177;-82
2023/02/22 14:42:47;;;;;;;15.30;9.03;;;15.10;74.30;;;;;;5098136;28;20165;-80
2023/02/22 14:45:34;;;;;;;12.67;8.53;;;15.00;74.70;;;;;;5097839;28;20159;-80
2023/02/22 14:48:12;;;;;;;12.20;8.90;;;14.80;74.70;;;;;;5099119;28;20177;-80
2023/02/22 14:50:43;;;;;;;15.13;8.77;;;14.80;75.10;;;;;;5098979;28;20153;-82
2023/02/22 14:53:12;;;;;;;12.07;7.90;;;14.80;75.80;;;;;;5096443;28;20185;-82
2023/02/22 14:56:02;;;;;;;14.00;8.60;;;14.60;75.80;;;;;;5098096;28;20233;-82
2023/02/22 14:59:06;;;;;;;17.40;9.97;;;14.50;76.50;;;;;;5099549;28;20206;-82
2023/02/22 15:01:37;;;;;;;13.80;8.73;;;14.40;77.90;;;;;;5097784;28;20531;-81
2023/02/22 15:04:20;;;;;;;13.80;8.20;;;14.40;77.80;;;;;;5097746;28;20172;-81
2023/02/22 15:06:46;;;;;;;10.80;7.40;;;14.30;77.70;;;;;;5097578;28;20608;-82
2023/02/22 15:09:14;;;;;;;11.93;8.03;;;14.20;77.60;;;;;;5099057;28;20252;-80
2023/02/22 15:11:40;;;;;;;14.10;8.30;;;14.00;78.40;;;;;;5095906;28;20274;-82
2023/02/22 15:14:22;;;;;;;12.33;8.30;;;13.90;79.40;;;;;;5097007;28;20205;-80
2023/02/22 15:16:57;;;;;;;11.43;6.83;;;13.90;79.70;;;;;;5097782;28;20235;-82
2023/02/22 15:19:30;;;;;;;9.93;7.37;;;13.80;79.60;;;;;;5100017;28;20682;-82
2023/02/22 15:21:58;;;;;;;9.73;7.47;;;13.70;79.10;;;;;;5095373;28;20218;-82
2023/02/22 15:24:27;;;;;;;26.37;19.93;;;13.70;79.80;;;;;;5096577;28;20169;-82
2023/02/22 15:26:54;;;;;;;10.70;7.43;;;13.80;80.10;;;;;;5095659;28;20204;-82
2023/02/22 15:29:30;;;;;;;9.23;7.00;;;13.80;79.60;;;;;;5097003;28;20172;-82
2023/02/22 15:31:57;;;;;;;8.67;6.07;;;13.80;79.50;;;;;;5095291;28;20630;-82
2023/02/22 15:34:27;;;;;;;10.00;5.97;;;13.70;79.50;;;;;;5095774;28;20172;-82
2023/02/22 15:36:55;;;;;;;10.90;5.93;;;13.70;79.50;;;;;;5095341;28;20218;-82
2023/02/22 15:39:24;;;;;;;9.43;6.30;;;13.70;79.50;;;;;;5095784;28;20177;-82
2023/02/22 15:42:06;;;;;;;9.93;5.70;;;13.60;79.40;;;;;;5095215;28;20259;-80
2023/02/22 15:44:41;;;;;;;9.90;6.07;;;13.40;79.40;;;;;;5095672;28;20168;-82
2023/02/22 15:47:14;;;;;;;14.13;6.00;;;13.20;80.60;;;;;;5095276;28;20199;-82
2023/02/22 15:49:40;;;;;;;9.27;6.17;;;13.10;81.50;;;;;;5096767;28;20166;-80
2023/02/22 15:52:15;;;;;;;8.97;6.57;;;13.00;81.70;;;;;;5094698;28;20262;-82
2023/02/22 15:54:47;;;;;;;10.53;6.50;;;12.90;82.70;;;;;;5095710;28;20184;-82
2023/02/22 15:57:16;;;;;;;10.00;6.63;;;12.80;82.90;;;;;;5097574;28;20210;-81
2023/02/22 15:59:46;;;;;;;8.13;6.10;;;12.70;83.20;;;;;;5100913;28;20172;-82
2023/02/22 16:02:31;;;;;;;8.07;5.73;;;12.70;83.60;;;;;;5101443;28;20161;-82
2023/02/22 16:05:08;;;;;;;10.17;7.17;;;12.70;84.20;;;;;;5101464;28;20165;-82
2023/02/22 16:07:54;;;;;;;12.30;9.20;;;12.60;84.30;;;;;;5101453;28;20622;-82
2023/02/22 16:10:28;;;;;;;10.97;7.53;;;12.50;84.50;;;;;;5099942;28;20525;-82
2023/02/22 16:13:25;;;;;;;11.70;7.33;;;12.50;85.80;;;;;;5099917;28;20301;-81
2023/02/22 16:15:56;;;;;;;11.57;6.43;;;12.30;85.50;;;;;;5085942;28;20216;-79
